sensor_id;sensor_type;location;lat;lon;timestamp;P1;durP1;ratioP1;P2;durP2;ratioP2
72408;SDS011;60402;48.082;11.628;2022-12-29T00:01:27;1.92;;;0.68;;
72408;SDS011;60402;48.082;11.628;2022-12-29T00:03:52;2.90;;;0.67;;
72408;SDS011;60402;48.082;11.628;2022-12-29T00:06:17;2.22;;;0.80;;
72408;SDS011;60402;48.082;11.628;2022-12-29T00:08:43;1.42;;;0.75;;
72408;SDS011;60402;48.082;11.628;2022-12-29T00:11:09;3.95;;;0.80;;
72408;SDS011;60402;48.082;11.628;2022-12-29T00:13:36;2.10;;;0.82;;
72408;SDS011;60402;48.082;11.628;2022-12-29T00:16:20;3.60;;;0.75;;
72408;SDS011;60402;48.082;11.628;2022-12-29T00:18:45;2.92;;;1.05;;
72408;SDS011;60402;48.082;11.628;2022-12-29T00:21:13;2.28;;;0.82;;
72408;SDS011;60402;48.082;11.628;2022-12-29T00:23:58;3.58;;;1.20;;
72408;SDS011;60402;48.082;11.628;2022-12-29T00:26:43;3.03;;;0.98;;
72408;SDS011;60402;48.082;11.628;2022-12-29T00:29:27;2.53;;;0.88;;
72408;SDS011;60402;48.082;11.628;2022-12-29T00:32:11;2.53;;;0.85;;
72408;SDS011;60402;48.082;11.628;2022-12-29T00:34:55;1.35;;;0.60;;
72408;SDS011;60402;48.082;11.628;2022-12-29T00:37:46;2.15;;;0.70;;
72408;SDS011;60402;48.082;11.628;2022-12-29T00:40:31;2.70;;;0.77;;
72408;SDS011;60402;48.082;11.628;2022-12-29T00:43:15;1.48;;;0.63;;
72408;SDS011;60402;48.082;11.628;2022-12-29T00:45:59;1.50;;;0.60;;
72408;SDS011;60402;48.082;11.628;2022-12-29T00:48:24;1.27;;;0.52;;
72408;SDS011;60402;48.082;11.628;2022-12-29T00:51:08;1.63;;;0.43;;
72408;SDS011;60402;48.082;11.628;2022-12-29T00:53:34;1.60;;;0.65;;
72408;SDS011;60402;48.082;11.628;2022-12-29T00:55:59;0.95;;;0.60;;
72408;SDS011;60402;48.082;11.628;2022-12-29T00:58:28;3.20;;;0.90;;
72408;SDS011;60402;48.082;11.628;2022-12-29T01:01:01;1.98;;;0.60;;
72408;SDS011;60402;48.082;11.628;2022-12-29T01:03:30;0.75;;;0.50;;
72408;SDS011;60402;48.082;11.628;2022-12-29T01:05:59;0.90;;;0.43;;
72408;SDS011;60402;48.082;11.628;2022-12-29T01:08:29;2.03;;;0.63;;
72408;SDS011;60402;48.082;11.628;2022-12-29T01:10:58;0.75;;;0.40;;
72408;SDS011;60402;48.082;11.628;2022-12-29T01:13:28;1.48;;;0.60;;
72408;SDS011;60402;48.082;11.628;2022-12-29T01:15:54;1.35;;;0.50;;
72408;SDS011;60402;48.082;11.628;2022-12-29T01:18:20;1.45;;;0.52;;
72408;SDS011;60402;48.082;11.628;2022-12-29T01:20:47;1.17;;;0.60;;
72408;SDS011;60402;48.082;11.628;2022-12-29T01:23:12;1.02;;;0.40;;
72408;SDS011;60402;48.082;11.628;2022-12-29T01:25:37;1.15;;;0.73;;
72408;SDS011;60402;48.082;11.628;2022-12-29T01:28:03;1.95;;;0.60;;
72408;SDS011;60402;48.082;11.628;2022-12-29T01:30:28;1.67;;;0.77;;
72408;SDS011;60402;48.082;11.628;2022-12-29T01:32:53;1.70;;;0.52;;
72408;SDS011;60402;48.082;11.628;2022-12-29T01:35:19;1.10;;;0.40;;
72408;SDS011;60402;48.082;11.628;2022-12-29T01:37:44;3.20;;;0.73;;
72408;SDS011;60402;48.082;11.628;2022-12-29T01:40:10;1.63;;;0.60;;
72408;SDS011;60402;48.082;11.628;2022-12-29T01:42:35;1.30;;;0.50;;
72408;SDS011;60402;48.082;11.628;2022-12-29T01:45:14;1.98;;;0.77;;
72408;SDS011;60402;48.082;11.628;2022-12-29T01:47:55;1.55;;;0.55;;
72408;SDS011;60402;48.082;11.628;2022-12-29T01:50:33;0.30;;;0.30;;
72408;SDS011;60402;48.082;11.628;2022-12-29T01:53:08;2.05;;;0.60;;
72408;SDS011;60402;48.082;11.628;2022-12-29T01:55:42;0.90;;;0.50;;
72408;SDS011;60402;48.082;11.628;2022-12-29T01:58:13;0.65;;;0.40;;
72408;SDS011;60402;48.082;11.628;2022-12-29T02:00:40;1.13;;;0.50;;
72408;SDS011;60402;48.082;11.628;2022-12-29T02:03:06;0.82;;;0.45;;
72408;SDS011;60402;48.082;11.628;2022-12-29T02:05:34;1.48;;;0.40;;
72408;SDS011;60402;48.082;11.628;2022-12-29T02:08:05;2.00;;;0.60;;
72408;SDS011;60402;48.082;11.628;2022-12-29T02:10:31;2.83;;;0.40;;
72408;SDS011;60402;48.082;11.628;2022-12-29T02:12:59;2.17;;;0.50;;
72408;SDS011;60402;48.082;11.628;2022-12-29T02:15:34;3.40;;;0.57;;
72408;SDS011;60402;48.082;11.628;2022-12-29T02:24:05;1.63;;;0.52;;
72408;SDS011;60402;48.082;11.628;2022-12-29T02:29:57;1.25;;;0.35;;
72408;SDS011;60402;48.082;11.628;2022-12-29T02:32:42;2.83;;;0.40;;
72408;SDS011;60402;48.082;11.628;2022-12-29T02:37:44;1.00;;;0.43;;
72408;SDS011;60402;48.082;11.628;2022-12-29T02:40:32;1.90;;;0.55;;
72408;SDS011;60402;48.082;11.628;2022-12-29T02:46:10;2.25;;;0.57;;
72408;SDS011;60402;48.082;11.628;2022-12-29T02:48:46;0.68;;;0.43;;
72408;SDS011;60402;48.082;11.628;2022-12-29T02:54:09;2.67;;;0.65;;
72408;SDS011;60402;48.082;11.628;2022-12-29T02:56:54;1.20;;;0.50;;
72408;SDS011;60402;48.082;11.628;2022-12-29T02:59:19;1.33;;;0.60;;
72408;SDS011;60402;48.082;11.628;2022-12-29T03:04:39;1.13;;;0.40;;
72408;SDS011;60402;48.082;11.628;2022-12-29T03:07:29;1.52;;;0.47;;
72408;SDS011;60402;48.082;11.628;2022-12-29T03:10:09;1.42;;;0.45;;
72408;SDS011;60402;48.082;11.628;2022-12-29T03:12:48;1.00;;;0.32;;
72408;SDS011;60402;48.082;11.628;2022-12-29T03:15:44;2.70;;;0.50;;
72408;SDS011;60402;48.082;11.628;2022-12-29T03:21:05;0.90;;;0.40;;
72408;SDS011;60402;48.082;11.628;2022-12-29T03:23:35;0.88;;;0.40;;
72408;SDS011;60402;48.082;11.628;2022-12-29T03:26:05;0.60;;;0.45;;
72408;SDS011;60402;48.082;11.628;2022-12-29T03:29:08;0.60;;;0.25;;
72408;SDS011;60402;48.082;11.628;2022-12-29T03:31:27;0.73;;;0.45;;
72408;SDS011;60402;48.082;11.628;2022-12-29T03:33:53;1.73;;;0.40;;
72408;SDS011;60402;48.082;11.628;2022-12-29T03:36:23;0.90;;;0.50;;
72408;SDS011;60402;48.082;11.628;2022-12-29T03:38:57;0.82;;;0.60;;
72408;SDS011;60402;48.082;11.628;2022-12-29T03:41:28;1.30;;;0.43;;
72408;SDS011;60402;48.082;11.628;2022-12-29T03:43:56;0.73;;;0.35;;
72408;SDS011;60402;48.082;11.628;2022-12-29T03:46:21;1.03;;;0.40;;
72408;SDS011;60402;48.082;11.628;2022-12-29T03:48:47;0.80;;;0.30;;
72408;SDS011;60402;48.082;11.628;2022-12-29T03:51:12;1.33;;;0.43;;
72408;SDS011;60402;48.082;11.628;2022-12-29T03:53:37;1.08;;;0.47;;
72408;SDS011;60402;48.082;11.628;2022-12-29T03:56:03;0.95;;;0.50;;
72408;SDS011;60402;48.082;11.628;2022-12-29T03:58:28;0.50;;;0.28;;
72408;SDS011;60402;48.082;11.628;2022-12-29T04:00:53;0.47;;;0.30;;
72408;SDS011;60402;48.082;11.628;2022-12-29T04:03:19;1.35;;;0.45;;
72408;SDS011;60402;48.082;11.628;2022-12-29T04:05:44;0.77;;;0.40;;
72408;SDS011;60402;48.082;11.628;2022-12-29T04:08:09;1.42;;;0.50;;
72408;SDS011;60402;48.082;11.628;2022-12-29T04:10:35;0.60;;;0.40;;
72408;SDS011;60402;48.082;11.628;2022-12-29T04:13:00;0.63;;;0.30;;
72408;SDS011;60402;48.082;11.628;2022-12-29T04:15:25;1.23;;;0.40;;
72408;SDS011;60402;48.082;11.628;2022-12-29T04:17:51;1.52;;;0.50;;
72408;SDS011;60402;48.082;11.628;2022-12-29T04:20:16;0.75;;;0.50;;
72408;SDS011;60402;48.082;11.628;2022-12-29T04:23:03;1.73;;;0.50;;
72408;SDS011;60402;48.082;11.628;2022-12-29T04:25:30;2.75;;;0.73;;
72408;SDS011;60402;48.082;11.628;2022-12-29T04:27:56;0.80;;;0.47;;
72408;SDS011;60402;48.082;11.628;2022-12-29T04:30:22;1.58;;;0.40;;
72408;SDS011;60402;48.082;11.628;2022-12-29T04:32:47;2.05;;;0.45;;
72408;SDS011;60402;48.082;11.628;2022-12-29T04:35:12;0.90;;;0.50;;
72408;SDS011;60402;48.082;11.628;2022-12-29T04:37:38;0.90;;;0.43;;
72408;SDS011;60402;48.082;11.628;2022-12-29T04:40:03;1.20;;;0.40;;
72408;SDS011;60402;48.082;11.628;2022-12-29T04:42:29;1.48;;;0.52;;
72408;SDS011;60402;48.082;11.628;2022-12-29T04:44:54;1.13;;;0.40;;
72408;SDS011;60402;48.082;11.628;2022-12-29T04:47:20;2.45;;;0.60;;
72408;SDS011;60402;48.082;11.628;2022-12-29T04:49:45;1.30;;;0.30;;
72408;SDS011;60402;48.082;11.628;2022-12-29T04:52:10;1.23;;;0.40;;
72408;SDS011;60402;48.082;11.628;2022-12-29T04:54:35;1.15;;;0.50;;
72408;SDS011;60402;48.082;11.628;2022-12-29T04:57:01;3.65;;;0.50;;
72408;SDS011;60402;48.082;11.628;2022-12-29T04:59:26;1.73;;;0.65;;
72408;SDS011;60402;48.082;11.628;2022-12-29T05:01:51;1.23;;;0.50;;
72408;SDS011;60402;48.082;11.628;2022-12-29T05:04:17;1.77;;;0.52;;
72408;SDS011;60402;48.082;11.628;2022-12-29T05:06:42;1.23;;;0.60;;
72408;SDS011;60402;48.082;11.628;2022-12-29T05:09:07;1.10;;;0.50;;
72408;SDS011;60402;48.082;11.628;2022-12-29T05:11:33;1.73;;;0.50;;
72408;SDS011;60402;48.082;11.628;2022-12-29T05:13:58;1.53;;;0.70;;
72408;SDS011;60402;48.082;11.628;2022-12-29T05:16:23;0.63;;;0.40;;
72408;SDS011;60402;48.082;11.628;2022-12-29T05:18:48;1.52;;;0.55;;
72408;SDS011;60402;48.082;11.628;2022-12-29T05:21:14;0.50;;;0.43;;
72408;SDS011;60402;48.082;11.628;2022-12-29T05:23:39;1.73;;;0.57;;
72408;SDS011;60402;48.082;11.628;2022-12-29T05:26:04;1.23;;;0.57;;
72408;SDS011;60402;48.082;11.628;2022-12-29T05:28:29;1.35;;;0.60;;
72408;SDS011;60402;48.082;11.628;2022-12-29T05:30:55;2.65;;;0.70;;
72408;SDS011;60402;48.082;11.628;2022-12-29T05:33:20;1.37;;;0.43;;
72408;SDS011;60402;48.082;11.628;2022-12-29T05:35:45;0.80;;;0.43;;
72408;SDS011;60402;48.082;11.628;2022-12-29T05:38:11;2.05;;;0.80;;
72408;SDS011;60402;48.082;11.628;2022-12-29T05:40:36;0.55;;;0.40;;
72408;SDS011;60402;48.082;11.628;2022-12-29T05:43:02;1.02;;;0.40;;
72408;SDS011;60402;48.082;11.628;2022-12-29T05:45:27;1.30;;;0.55;;
72408;SDS011;60402;48.082;11.628;2022-12-29T05:47:52;0.68;;;0.32;;
72408;SDS011;60402;48.082;11.628;2022-12-29T05:50:18;0.95;;;0.52;;
72408;SDS011;60402;48.082;11.628;2022-12-29T05:52:43;2.40;;;0.60;;
72408;SDS011;60402;48.082;11.628;2022-12-29T05:55:09;0.98;;;0.50;;
72408;SDS011;60402;48.082;11.628;2022-12-29T05:57:34;0.45;;;0.40;;
72408;SDS011;60402;48.082;11.628;2022-12-29T06:00:00;2.05;;;0.90;;
72408;SDS011;60402;48.082;11.628;2022-12-29T06:02:25;1.80;;;0.80;;
72408;SDS011;60402;48.082;11.628;2022-12-29T06:04:50;2.88;;;0.75;;
72408;SDS011;60402;48.082;11.628;2022-12-29T06:07:16;0.82;;;0.47;;
72408;SDS011;60402;48.082;11.628;2022-12-29T06:09:41;1.15;;;0.60;;
72408;SDS011;60402;48.082;11.628;2022-12-29T06:12:06;2.17;;;0.70;;
72408;SDS011;60402;48.082;11.628;2022-12-29T06:14:32;1.13;;;0.60;;
72408;SDS011;60402;48.082;11.628;2022-12-29T06:16:57;1.23;;;0.50;;
72408;SDS011;60402;48.082;11.628;2022-12-29T06:19:22;1.95;;;0.68;;
72408;SDS011;60402;48.082;11.628;2022-12-29T06:21:48;2.20;;;0.70;;
72408;SDS011;60402;48.082;11.628;2022-12-29T06:24:13;1.47;;;0.50;;
72408;SDS011;60402;48.082;11.628;2022-12-29T06:26:38;3.00;;;0.95;;
72408;SDS011;60402;48.082;11.628;2022-12-29T06:29:05;2.90;;;0.60;;
72408;SDS011;60402;48.082;11.628;2022-12-29T06:31:31;1.65;;;0.47;;
72408;SDS011;60402;48.082;11.628;2022-12-29T06:33:57;1.05;;;0.50;;
72408;SDS011;60402;48.082;11.628;2022-12-29T06:36:22;1.52;;;0.60;;
72408;SDS011;60402;48.082;11.628;2022-12-29T06:38:48;1.10;;;0.50;;
72408;SDS011;60402;48.082;11.628;2022-12-29T06:41:13;1.93;;;0.60;;
72408;SDS011;60402;48.082;11.628;2022-12-29T06:43:38;1.95;;;0.70;;
72408;SDS011;60402;48.082;11.628;2022-12-29T06:46:04;2.20;;;0.50;;
72408;SDS011;60402;48.082;11.628;2022-12-29T06:48:30;0.73;;;0.50;;
72408;SDS011;60402;48.082;11.628;2022-12-29T06:50:55;2.40;;;0.70;;
72408;SDS011;60402;48.082;11.628;2022-12-29T06:53:20;1.50;;;0.60;;
72408;SDS011;60402;48.082;11.628;2022-12-29T06:55:46;1.77;;;0.63;;
72408;SDS011;60402;48.082;11.628;2022-12-29T06:58:11;1.20;;;0.50;;
72408;SDS011;60402;48.082;11.628;2022-12-29T07:00:36;1.45;;;0.60;;
72408;SDS011;60402;48.082;11.628;2022-12-29T07:03:02;3.97;;;0.80;;
72408;SDS011;60402;48.082;11.628;2022-12-29T07:05:27;2.13;;;0.82;;
72408;SDS011;60402;48.082;11.628;2022-12-29T07:07:53;1.92;;;0.60;;
72408;SDS011;60402;48.082;11.628;2022-12-29T07:10:19;2.95;;;0.85;;
72408;SDS011;60402;48.082;11.628;2022-12-29T07:12:44;1.63;;;0.60;;
72408;SDS011;60402;48.082;11.628;2022-12-29T07:15:10;1.67;;;0.80;;
72408;SDS011;60402;48.082;11.628;2022-12-29T07:17:35;2.47;;;0.70;;
72408;SDS011;60402;48.082;11.628;2022-12-29T07:20:00;1.33;;;0.70;;
72408;SDS011;60402;48.082;11.628;2022-12-29T07:22:26;2.20;;;0.70;;
72408;SDS011;60402;48.082;11.628;2022-12-29T07:24:51;3.23;;;2.73;;
72408;SDS011;60402;48.082;11.628;2022-12-29T07:27:16;1.90;;;0.90;;
72408;SDS011;60402;48.082;11.628;2022-12-29T07:29:42;1.10;;;0.60;;
72408;SDS011;60402;48.082;11.628;2022-12-29T07:32:07;1.63;;;0.70;;
72408;SDS011;60402;48.082;11.628;2022-12-29T07:34:32;2.17;;;0.70;;
72408;SDS011;60402;48.082;11.628;2022-12-29T07:36:58;0.93;;;0.50;;
72408;SDS011;60402;48.082;11.628;2022-12-29T07:39:23;1.67;;;0.70;;
72408;SDS011;60402;48.082;11.628;2022-12-29T07:41:48;2.10;;;0.85;;
72408;SDS011;60402;48.082;11.628;2022-12-29T07:44:14;3.70;;;1.05;;
72408;SDS011;60402;48.082;11.628;2022-12-29T07:46:39;2.05;;;0.70;;
72408;SDS011;60402;48.082;11.628;2022-12-29T07:49:04;1.30;;;0.63;;
72408;SDS011;60402;48.082;11.628;2022-12-29T07:51:29;2.05;;;0.80;;
72408;SDS011;60402;48.082;11.628;2022-12-29T07:53:56;3.65;;;0.90;;
72408;SDS011;60402;48.082;11.628;2022-12-29T07:56:21;2.53;;;0.95;;
72408;SDS011;60402;48.082;11.628;2022-12-29T07:58:47;2.42;;;0.95;;
72408;SDS011;60402;48.082;11.628;2022-12-29T08:01:12;3.40;;;1.00;;
72408;SDS011;60402;48.082;11.628;2022-12-29T08:03:37;3.42;;;0.93;;
72408;SDS011;60402;48.082;11.628;2022-12-29T08:06:03;1.88;;;0.70;;
72408;SDS011;60402;48.082;11.628;2022-12-29T08:08:28;3.00;;;0.80;;
72408;SDS011;60402;48.082;11.628;2022-12-29T08:10:53;2.00;;;0.70;;
72408;SDS011;60402;48.082;11.628;2022-12-29T08:13:19;3.15;;;0.90;;
72408;SDS011;60402;48.082;11.628;2022-12-29T08:15:44;2.07;;;0.90;;
72408;SDS011;60402;48.082;11.628;2022-12-29T08:18:10;3.90;;;0.80;;
72408;SDS011;60402;48.082;11.628;2022-12-29T08:20:35;2.40;;;0.80;;
72408;SDS011;60402;48.082;11.628;2022-12-29T08:23:00;1.77;;;0.70;;
72408;SDS011;60402;48.082;11.628;2022-12-29T08:25:25;2.03;;;0.80;;
72408;SDS011;60402;48.082;11.628;2022-12-29T08:27:51;2.22;;;0.90;;
72408;SDS011;60402;48.082;11.628;2022-12-29T08:30:16;1.67;;;0.73;;
72408;SDS011;60402;48.082;11.628;2022-12-29T08:32:41;1.55;;;0.60;;
72408;SDS011;60402;48.082;11.628;2022-12-29T08:35:07;2.20;;;0.90;;
72408;SDS011;60402;48.082;11.628;2022-12-29T08:37:33;1.23;;;0.73;;
72408;SDS011;60402;48.082;11.628;2022-12-29T08:39:58;2.65;;;0.88;;
72408;SDS011;60402;48.082;11.628;2022-12-29T08:42:28;2.88;;;1.10;;
72408;SDS011;60402;48.082;11.628;2022-12-29T08:44:56;2.42;;;0.90;;
72408;SDS011;60402;48.082;11.628;2022-12-29T08:47:24;2.15;;;0.85;;
72408;SDS011;60402;48.082;11.628;2022-12-29T08:49:49;1.52;;;0.75;;
72408;SDS011;60402;48.082;11.628;2022-12-29T08:52:15;3.03;;;0.85;;
72408;SDS011;60402;48.082;11.628;2022-12-29T08:54:40;2.38;;;1.10;;
72408;SDS011;60402;48.082;11.628;2022-12-29T08:57:05;1.77;;;0.90;;
72408;SDS011;60402;48.082;11.628;2022-12-29T08:59:31;2.70;;;0.82;;
72408;SDS011;60402;48.082;11.628;2022-12-29T09:01:56;2.50;;;0.80;;
72408;SDS011;60402;48.082;11.628;2022-12-29T09:04:21;3.00;;;0.93;;
72408;SDS011;60402;48.082;11.628;2022-12-29T09:06:48;2.00;;;0.75;;
72408;SDS011;60402;48.082;11.628;2022-12-29T09:09:14;3.35;;;1.00;;
72408;SDS011;60402;48.082;11.628;2022-12-29T09:11:40;2.03;;;0.73;;
72408;SDS011;60402;48.082;11.628;2022-12-29T09:14:06;2.60;;;0.80;;
72408;SDS011;60402;48.082;11.628;2022-12-29T09:16:31;2.00;;;0.90;;
72408;SDS011;60402;48.082;11.628;2022-12-29T09:18:57;2.00;;;0.80;;
72408;SDS011;60402;48.082;11.628;2022-12-29T09:21:22;1.50;;;0.70;;
72408;SDS011;60402;48.082;11.628;2022-12-29T09:23:48;2.95;;;0.88;;
72408;SDS011;60402;48.082;11.628;2022-12-29T09:26:13;1.45;;;0.70;;
72408;SDS011;60402;48.082;11.628;2022-12-29T09:28:39;1.90;;;0.80;;
72408;SDS011;60402;48.082;11.628;2022-12-29T09:31:05;2.55;;;0.77;;
72408;SDS011;60402;48.082;11.628;2022-12-29T09:33:30;2.20;;;0.85;;
72408;SDS011;60402;48.082;11.628;2022-12-29T09:35:58;2.15;;;0.90;;
72408;SDS011;60402;48.082;11.628;2022-12-29T09:38:24;1.83;;;0.80;;
72408;SDS011;60402;48.082;11.628;2022-12-29T09:40:59;2.05;;;1.00;;
72408;SDS011;60402;48.082;11.628;2022-12-29T09:43:43;1.70;;;0.77;;
72408;SDS011;60402;48.082;11.628;2022-12-29T09:46:34;1.50;;;0.52;;
72408;SDS011;60402;48.082;11.628;2022-12-29T09:49:22;2.25;;;0.70;;
72408;SDS011;60402;48.082;11.628;2022-12-29T09:52:04;1.70;;;0.80;;
72408;SDS011;60402;48.082;11.628;2022-12-29T09:57:25;1.13;;;0.60;;
72408;SDS011;60402;48.082;11.628;2022-12-29T09:59:56;1.25;;;0.60;;
72408;SDS011;60402;48.082;11.628;2022-12-29T10:05:03;1.63;;;0.70;;
72408;SDS011;60402;48.082;11.628;2022-12-29T10:07:43;1.70;;;0.70;;
72408;SDS011;60402;48.082;11.628;2022-12-29T10:10:33;1.92;;;0.63;;
72408;SDS011;60402;48.082;11.628;2022-12-29T10:16:02;1.50;;;0.70;;
72408;SDS011;60402;48.082;11.628;2022-12-29T10:18:51;2.25;;;0.80;;
72408;SDS011;60402;48.082;11.628;2022-12-29T10:21:53;4.57;;;0.90;;
72408;SDS011;60402;48.082;11.628;2022-12-29T10:24:33;2.83;;;1.00;;
72408;SDS011;60402;48.082;11.628;2022-12-29T10:27:02;1.83;;;0.70;;
72408;SDS011;60402;48.082;11.628;2022-12-29T10:29:35;2.20;;;0.80;;
72408;SDS011;60402;48.082;11.628;2022-12-29T10:32:28;1.50;;;1.00;;
72408;SDS011;60402;48.082;11.628;2022-12-29T10:35:07;2.67;;;0.80;;
72408;SDS011;60402;48.082;11.628;2022-12-29T10:38:03;3.28;;;0.93;;
72408;SDS011;60402;48.082;11.628;2022-12-29T10:40:38;2.38;;;0.80;;
72408;SDS011;60402;48.082;11.628;2022-12-29T10:45:53;2.13;;;0.80;;
72408;SDS011;60402;48.082;11.628;2022-12-29T10:48:22;2.25;;;0.80;;
72408;SDS011;60402;48.082;11.628;2022-12-29T10:50:52;2.30;;;0.50;;
72408;SDS011;60402;48.082;11.628;2022-12-29T10:53:22;1.20;;;0.73;;
72408;SDS011;60402;48.082;11.628;2022-12-29T10:55:52;1.50;;;0.60;;
72408;SDS011;60402;48.082;11.628;2022-12-29T10:58:18;1.63;;;0.60;;
72408;SDS011;60402;48.082;11.628;2022-12-29T11:00:49;1.10;;;0.52;;
72408;SDS011;60402;48.082;11.628;2022-12-29T11:03:31;2.45;;;0.70;;
72408;SDS011;60402;48.082;11.628;2022-12-29T11:06:04;1.90;;;0.70;;
72408;SDS011;60402;48.082;11.628;2022-12-29T11:08:35;2.67;;;0.60;;
72408;SDS011;60402;48.082;11.628;2022-12-29T11:11:05;1.27;;;0.60;;
72408;SDS011;60402;48.082;11.628;2022-12-29T11:13:33;1.83;;;0.65;;
72408;SDS011;60402;48.082;11.628;2022-12-29T11:16:11;1.88;;;0.73;;
72408;SDS011;60402;48.082;11.628;2022-12-29T11:18:37;1.10;;;0.60;;
72408;SDS011;60402;48.082;11.628;2022-12-29T11:21:05;2.90;;;0.60;;
72408;SDS011;60402;48.082;11.628;2022-12-29T11:23:33;1.85;;;0.60;;
72408;SDS011;60402;48.082;11.628;2022-12-29T11:28:37;1.38;;;0.70;;
72408;SDS011;60402;48.082;11.628;2022-12-29T11:31:04;1.45;;;0.60;;
72408;SDS011;60402;48.082;11.628;2022-12-29T11:33:31;1.70;;;0.63;;
72408;SDS011;60402;48.082;11.628;2022-12-29T11:36:08;1.33;;;0.57;;
72408;SDS011;60402;48.082;11.628;2022-12-29T11:38:56;1.85;;;0.82;;
72408;SDS011;60402;48.082;11.628;2022-12-29T11:41:28;1.50;;;0.60;;
72408;SDS011;60402;48.082;11.628;2022-12-29T11:43:57;1.42;;;0.60;;
72408;SDS011;60402;48.082;11.628;2022-12-29T11:46:26;2.38;;;0.75;;
72408;SDS011;60402;48.082;11.628;2022-12-29T11:48:53;1.45;;;0.63;;
72408;SDS011;60402;48.082;11.628;2022-12-29T11:51:23;1.58;;;0.65;;
72408;SDS011;60402;48.082;11.628;2022-12-29T11:53:53;1.80;;;0.60;;
72408;SDS011;60402;48.082;11.628;2022-12-29T12:07:21;1.50;;;0.63;;
72408;SDS011;60402;48.082;11.628;2022-12-29T12:09:56;1.70;;;0.60;;
72408;SDS011;60402;48.082;11.628;2022-12-29T12:12:37;2.35;;;0.60;;
72408;SDS011;60402;48.082;11.628;2022-12-29T12:15:13;1.15;;;0.57;;
72408;SDS011;60402;48.082;11.628;2022-12-29T12:20:58;1.75;;;0.60;;
72408;SDS011;60402;48.082;11.628;2022-12-29T12:23:30;2.30;;;0.60;;
72408;SDS011;60402;48.082;11.628;2022-12-29T12:28:49;2.00;;;0.65;;
72408;SDS011;60402;48.082;11.628;2022-12-29T12:32:04;0.95;;;0.45;;
72408;SDS011;60402;48.082;11.628;2022-12-29T12:34:19;2.63;;;0.60;;
72408;SDS011;60402;48.082;11.628;2022-12-29T12:36:55;1.50;;;0.60;;
72408;SDS011;60402;48.082;11.628;2022-12-29T12:42:26;1.97;;;0.63;;
72408;SDS011;60402;48.082;11.628;2022-12-29T12:45:27;2.28;;;0.70;;
72408;SDS011;60402;48.082;11.628;2022-12-29T12:59:05;1.27;;;0.60;;
72408;SDS011;60402;48.082;11.628;2022-12-29T13:02:00;2.42;;;0.75;;
72408;SDS011;60402;48.082;11.628;2022-12-29T13:07:30;1.55;;;0.70;;
72408;SDS011;60402;48.082;11.628;2022-12-29T13:10:04;1.92;;;0.70;;
72408;SDS011;60402;48.082;11.628;2022-12-29T13:24:12;1.58;;;0.70;;
72408;SDS011;60402;48.082;11.628;2022-12-29T13:26:43;1.42;;;0.50;;
72408;SDS011;60402;48.082;11.628;2022-12-29T13:34:34;2.30;;;0.80;;
72408;SDS011;60402;48.082;11.628;2022-12-29T13:37:12;1.23;;;0.50;;
72408;SDS011;60402;48.082;11.628;2022-12-29T13:39:52;1.35;;;0.73;;
72408;SDS011;60402;48.082;11.628;2022-12-29T13:42:22;1.35;;;0.70;;
72408;SDS011;60402;48.082;11.628;2022-12-29T13:44:51;2.85;;;0.80;;
72408;SDS011;60402;48.082;11.628;2022-12-29T13:48:21;2.35;;;0.70;;
72408;SDS011;60402;48.082;11.628;2022-12-29T13:50:28;2.72;;;0.90;;
72408;SDS011;60402;48.082;11.628;2022-12-29T13:58:32;3.65;;;1.35;;
72408;SDS011;60402;48.082;11.628;2022-12-29T14:01:50;3.33;;;1.20;;
72408;SDS011;60402;48.082;11.628;2022-12-29T14:03:59;2.38;;;1.00;;
72408;SDS011;60402;48.082;11.628;2022-12-29T14:06:31;2.45;;;1.00;;
72408;SDS011;60402;48.082;11.628;2022-12-29T14:09:00;2.40;;;0.70;;
72408;SDS011;60402;48.082;11.628;2022-12-29T14:11:31;3.17;;;0.98;;
72408;SDS011;60402;48.082;11.628;2022-12-29T14:13:59;3.38;;;0.88;;
72408;SDS011;60402;48.082;11.628;2022-12-29T14:16:35;3.28;;;0.98;;
72408;SDS011;60402;48.082;11.628;2022-12-29T14:19:04;2.83;;;0.90;;
72408;SDS011;60402;48.082;11.628;2022-12-29T14:21:36;2.35;;;0.88;;
72408;SDS011;60402;48.082;11.628;2022-12-29T14:34:53;2.33;;;0.82;;
72408;SDS011;60402;48.082;11.628;2022-12-29T14:37:35;1.85;;;0.80;;
72408;SDS011;60402;48.082;11.628;2022-12-29T14:40:23;1.38;;;0.90;;
72408;SDS011;60402;48.082;11.628;2022-12-29T14:42:51;2.63;;;0.80;;
72408;SDS011;60402;48.082;11.628;2022-12-29T14:47:48;1.73;;;0.70;;
72408;SDS011;60402;48.082;11.628;2022-12-29T14:58:15;2.80;;;0.77;;
72408;SDS011;60402;48.082;11.628;2022-12-29T15:00:45;1.58;;;0.90;;
72408;SDS011;60402;48.082;11.628;2022-12-29T15:06:13;3.55;;;1.00;;
72408;SDS011;60402;48.082;11.628;2022-12-29T15:08:45;2.65;;;1.00;;
72408;SDS011;60402;48.082;11.628;2022-12-29T15:13:45;3.08;;;1.00;;
72408;SDS011;60402;48.082;11.628;2022-12-29T15:18:48;3.28;;;1.05;;
72408;SDS011;60402;48.082;11.628;2022-12-29T15:21:14;4.32;;;1.10;;
72408;SDS011;60402;48.082;11.628;2022-12-29T15:23:41;4.18;;;1.33;;
72408;SDS011;60402;48.082;11.628;2022-12-29T15:26:09;2.55;;;0.98;;
72408;SDS011;60402;48.082;11.628;2022-12-29T15:33:43;2.83;;;1.10;;
72408;SDS011;60402;48.082;11.628;2022-12-29T15:36:13;4.05;;;1.23;;
72408;SDS011;60402;48.082;11.628;2022-12-29T15:38:44;4.57;;;1.35;;
72408;SDS011;60402;48.082;11.628;2022-12-29T15:44:03;2.58;;;1.13;;
72408;SDS011;60402;48.082;11.628;2022-12-29T15:46:32;3.53;;;1.10;;
72408;SDS011;60402;48.082;11.628;2022-12-29T15:48:57;4.53;;;1.50;;
72408;SDS011;60402;48.082;11.628;2022-12-29T15:51:38;3.75;;;1.10;;
72408;SDS011;60402;48.082;11.628;2022-12-29T15:54:05;3.13;;;1.15;;
72408;SDS011;60402;48.082;11.628;2022-12-29T15:56:31;3.58;;;1.30;;
72408;SDS011;60402;48.082;11.628;2022-12-29T15:58:58;3.17;;;1.40;;
72408;SDS011;60402;48.082;11.628;2022-12-29T16:03:54;3.35;;;1.40;;
72408;SDS011;60402;48.082;11.628;2022-12-29T16:06:26;3.33;;;1.15;;
72408;SDS011;60402;48.082;11.628;2022-12-29T16:09:03;4.82;;;1.27;;
72408;SDS011;60402;48.082;11.628;2022-12-29T16:11:37;4.97;;;1.65;;
72408;SDS011;60402;48.082;11.628;2022-12-29T16:14:13;3.95;;;1.35;;
72408;SDS011;60402;48.082;11.628;2022-12-29T16:16:42;5.13;;;1.52;;
72408;SDS011;60402;48.082;11.628;2022-12-29T16:19:21;5.40;;;1.38;;
72408;SDS011;60402;48.082;11.628;2022-12-29T16:21:51;3.03;;;1.42;;
72408;SDS011;60402;48.082;11.628;2022-12-29T16:24:21;4.53;;;1.50;;
72408;SDS011;60402;48.082;11.628;2022-12-29T16:29:39;4.20;;;1.40;;
72408;SDS011;60402;48.082;11.628;2022-12-29T16:32:22;4.45;;;1.65;;
72408;SDS011;60402;48.082;11.628;2022-12-29T16:37:46;3.67;;;1.30;;
72408;SDS011;60402;48.082;11.628;2022-12-29T16:42:47;3.83;;;1.60;;
72408;SDS011;60402;48.082;11.628;2022-12-29T16:47:49;3.67;;;1.63;;
72408;SDS011;60402;48.082;11.628;2022-12-29T16:50:30;2.97;;;1.23;;
72408;SDS011;60402;48.082;11.628;2022-12-29T16:52:56;3.90;;;1.50;;
72408;SDS011;60402;48.082;11.628;2022-12-29T16:55:22;4.38;;;1.63;;
72408;SDS011;60402;48.082;11.628;2022-12-29T16:57:48;4.43;;;1.70;;
72408;SDS011;60402;48.082;11.628;2022-12-29T17:00:20;3.72;;;1.50;;
72408;SDS011;60402;48.082;11.628;2022-12-29T17:02:46;5.72;;;1.60;;
72408;SDS011;60402;48.082;11.628;2022-12-29T17:05:14;6.35;;;2.00;;
72408;SDS011;60402;48.082;11.628;2022-12-29T17:07:41;5.03;;;1.95;;
72408;SDS011;60402;48.082;11.628;2022-12-29T17:10:07;4.53;;;2.15;;
72408;SDS011;60402;48.082;11.628;2022-12-29T17:12:33;4.57;;;1.80;;
72408;SDS011;60402;48.082;11.628;2022-12-29T17:15:00;7.90;;;2.38;;